createdAt,value
2022-11-25T00:02:20.242Z,100137.69
2022-11-25T00:04:53.813Z,100139.50
2022-11-25T00:07:27.360Z,100140.38
2022-11-25T00:10:00.844Z,100132.47
2022-11-25T00:12:34.314Z,100130.72
2022-11-25T00:15:08.218Z,100137.75
2022-11-25T00:17:42.898Z,100134.97
2022-11-25T00:20:16.714Z,100133.31
2022-11-25T00:22:50.131Z,100136.84
2022-11-25T00:25:23.505Z,100143.81
2022-11-25T00:27:56.997Z,100139.44
2022-11-25T00:30:30.639Z,100143.66
2022-11-25T00:33:05.523Z,100143.78
2022-11-25T00:35:41.864Z,100146.41
2022-11-25T00:38:15.358Z,100150.78
2022-11-25T00:41:09.038Z,100151.63
2022-11-25T00:43:59.730Z,100144.59
2022-11-25T00:46:33.311Z,100150.75
2022-11-25T00:49:08.694Z,100152.47
2022-11-25T00:51:42.192Z,100159.50
2022-11-25T00:54:15.796Z,100159.50
2022-11-25T00:56:49.317Z,100163.91
2022-11-25T00:59:22.833Z,100164.75
2022-11-25T01:01:57.156Z,100161.25
2022-11-25T01:04:32.087Z,100165.63
2022-11-25T01:07:05.954Z,100160.38
2022-11-25T01:09:41.356Z,100165.63
2022-11-25T01:12:14.845Z,100167.38
2022-11-25T01:14:48.374Z,100169.97
2022-11-25T01:17:21.969Z,100168.22
2022-11-25T01:19:56.950Z,100174.38
2022-11-25T01:22:30.413Z,100172.59
2022-11-25T01:25:04.073Z,100178.72
2022-11-25T01:27:40.958Z,100180.47
2022-11-25T01:30:15.031Z,100184.88
2022-11-25T01:32:48.168Z,100182.06
2022-11-25T01:35:23.468Z,100186.56
2022-11-25T01:37:56.969Z,100181.28
2022-11-25T01:40:30.947Z,100182.16
2022-11-25T01:43:04.523Z,100186.53
2022-11-25T01:45:39.858Z,100189.16
2022-11-25T01:48:18.318Z,100192.63
2022-11-25T01:50:54.256Z,100182.97
2022-11-25T01:53:28.192Z,100184.69
2022-11-25T01:56:05.567Z,100183.78
2022-11-25T01:58:41.725Z,100182.88
2022-11-25T02:01:17.352Z,100187.28
2022-11-25T02:03:53.802Z,100183.75
2022-11-25T02:06:33.638Z,100187.22
2022-11-25T02:09:09.510Z,100176.69
2022-11-25T02:11:46.846Z,100174.88
2022-11-25T02:14:22.744Z,100183.66
2022-11-25T02:17:01.792Z,100186.28
2022-11-25T02:19:51.807Z,100180.13
2022-11-25T02:22:34.308Z,100188.94
2022-11-25T02:25:16.635Z,100188.06
2022-11-25T02:27:54.882Z,100186.34
2022-11-25T02:30:28.520Z,100200.41
2022-11-25T02:33:02.960Z,100197.75
2022-11-25T02:35:38.419Z,100201.25
2022-11-25T02:38:15.621Z,100204.75
2022-11-25T02:40:54.333Z,100203.84
2022-11-25T02:43:28.022Z,100207.31
2022-11-25T02:46:03.131Z,100199.41
2022-11-25T02:49:07.407Z,100202.03
2022-11-25T02:51:33.728Z,100211.66
2022-11-25T02:54:07.776Z,100209.03
2022-11-25T02:56:42.652Z,100202.69
2022-11-25T02:59:16.357Z,100208.09
2022-11-25T03:01:50.041Z,100212.47
2022-11-25T03:04:23.722Z,100216.00
2022-11-25T03:06:57.297Z,100208.09
2022-11-25T03:09:31.609Z,100209.84
2022-11-25T03:12:22.122Z,100203.72
2022-11-25T03:14:59.609Z,100213.41
2022-11-25T03:17:34.904Z,100204.63
2022-11-25T03:20:09.923Z,100214.28
2022-11-25T03:22:44.125Z,100217.81
2022-11-25T03:25:18.794Z,100215.19
2022-11-25T03:27:56.205Z,100212.56
2022-11-25T03:30:31.148Z,100216.97
2022-11-25T03:33:07.525Z,100219.59
2022-11-25T03:35:41.129Z,100223.97
2022-11-25T03:38:14.624Z,100223.97
2022-11-25T03:40:49.543Z,100220.47
2022-11-25T03:43:25.459Z,100223.19
2022-11-25T03:45:59.063Z,100231.94
2022-11-25T03:48:32.640Z,100224.06
2022-11-25T03:51:06.394Z,100221.44
2022-11-25T03:53:41.085Z,100221.44
2022-11-25T03:56:16.232Z,100217.97
2022-11-25T03:58:51.217Z,100219.72
2022-11-25T04:01:26.262Z,100221.50
2022-11-25T04:03:59.936Z,100223.22
2022-11-25T04:06:33.608Z,100222.28
2022-11-25T04:09:07.231Z,100218.78
2022-11-25T04:11:58.305Z,100217.84
2022-11-25T04:14:36.110Z,100225.72
2022-11-25T04:17:09.941Z,100230.06
2022-11-25T04:19:45.107Z,100222.16
2022-11-25T04:22:19.741Z,100225.63
2022-11-25T04:24:57.340Z,100232.63
2022-11-25T04:27:32.712Z,100228.19
2022-11-25T04:30:09.286Z,100228.19
2022-11-25T04:32:45.880Z,100232.59
2022-11-25T04:35:20.799Z,100236.09
2022-11-25T04:37:58.273Z,100247.50
2022-11-25T04:40:32.615Z,100244.00
2022-11-25T04:43:19.298Z,100248.38
2022-11-25T04:46:17.400Z,100243.97
2022-11-25T04:48:54.961Z,100246.56
2022-11-25T04:51:29.066Z,100247.47
2022-11-25T04:54:07.458Z,100243.09
2022-11-25T04:56:42.783Z,100250.09
2022-11-25T04:59:34.096Z,100247.44
2022-11-25T05:02:13.527Z,100251.84
2022-11-25T05:04:49.823Z,100252.72
2022-11-25T05:07:25.192Z,100252.72
2022-11-25T05:10:01.019Z,100256.25
2022-11-25T05:12:41.316Z,100256.22
2022-11-25T05:15:19.611Z,100251.81
2022-11-25T05:17:55.863Z,100250.06
2022-11-25T05:20:45.824Z,100257.94
2022-11-25T05:23:22.460Z,100257.94
2022-11-25T05:26:00.833Z,100263.19
2022-11-25T05:28:44.154Z,100267.56
2022-11-25T05:31:18.727Z,100271.06
2022-11-25T05:33:53.984Z,100268.44
2022-11-25T05:36:29.053Z,100269.34
2022-11-25T05:39:03.268Z,100271.09
2022-11-25T05:41:56.797Z,100276.38
2022-11-25T05:44:30.413Z,100274.63
2022-11-25T05:47:04.015Z,100283.28
2022-11-25T05:49:40.210Z,100279.03
2022-11-25T05:52:13.912Z,100294.00
2022-11-25T05:54:58.875Z,100293.13
2022-11-25T05:57:33.214Z,100294.91
2022-11-25T06:00:13.309Z,100290.53
2022-11-25T06:02:53.807Z,100303.69
2022-11-25T06:05:29.802Z,100306.31
2022-11-25T06:08:03.453Z,100306.31
2022-11-25T06:10:40.929Z,100299.25
2022-11-25T06:13:14.824Z,100302.72
2022-11-25T06:15:49.069Z,100295.69
2022-11-25T06:18:24.598Z,100307.06
2022-11-25T06:21:00.505Z,100295.63
2022-11-25T06:23:35.706Z,100307.06
2022-11-25T06:26:13.060Z,100311.41
2022-11-25T06:28:46.771Z,100313.16
2022-11-25T06:31:22.380Z,100314.03
2022-11-25T06:34:09.352Z,100307.00
2022-11-25T06:36:46.124Z,100314.91
2022-11-25T06:39:19.861Z,100316.66
2022-11-25T06:41:53.431Z,100311.34
2022-11-25T06:44:27.058Z,100312.22
2022-11-25T06:47:00.609Z,100313.97
2022-11-25T06:49:34.162Z,100312.22
2022-11-25T06:52:09.167Z,100311.34
2022-11-25T06:54:42.821Z,100322.78
2022-11-25T06:57:19.762Z,100321.00
2022-11-25T06:59:53.442Z,100321.88
2022-11-25T07:02:27.174Z,100316.56
2022-11-25T07:05:00.686Z,100320.06
2022-11-25T07:07:35.678Z,100325.31
2022-11-25T07:10:10.433Z,100330.56
2022-11-25T07:12:44.116Z,100329.66
2022-11-25T07:15:17.587Z,100335.78
2022-11-25T07:17:51.120Z,100335.78
2022-11-25T07:20:25.492Z,100334.88
2022-11-25T07:23:00.557Z,100332.25
2022-11-25T07:25:34.194Z,100336.66
2022-11-25T07:28:07.988Z,100337.50
2022-11-25T07:31:22.246Z,100340.97
2022-11-25T07:33:35.170Z,100336.53
2022-11-25T07:36:11.104Z,100344.44
2022-11-25T07:38:46.930Z,100339.16
2022-11-25T07:41:23.406Z,100348.81
2022-11-25T07:43:59.030Z,100347.94
2022-11-25T07:46:34.139Z,100349.66
2022-11-25T07:49:09.866Z,100353.19
2022-11-25T07:51:45.545Z,100346.13
2022-11-25T07:54:20.809Z,100355.78
2022-11-25T07:56:54.551Z,100344.28
2022-11-25T07:59:28.359Z,100349.53
2022-11-25T08:02:02.056Z,100353.91
2022-11-25T08:04:35.746Z,100352.97
2022-11-25T08:07:09.390Z,100352.09
2022-11-25T08:09:44.474Z,100354.72
2022-11-25T08:12:18.161Z,100353.75
2022-11-25T08:14:51.855Z,100353.69
2022-11-25T08:17:25.351Z,100361.53
2022-11-25T08:19:59.031Z,100357.97
2022-11-25T08:22:32.715Z,100357.03
2022-11-25T08:25:08.684Z,100342.94
2022-11-25T08:27:44.082Z,100352.59
2022-11-25T08:30:17.978Z,100351.66
2022-11-25T08:32:51.701Z,100352.44
2022-11-25T08:35:25.303Z,100350.63
2022-11-25T08:37:59.042Z,100354.94
2022-11-25T08:40:34.627Z,100354.03
2022-11-25T08:43:08.113Z,100354.84
2022-11-25T08:45:42.081Z,100355.66
2022-11-25T08:48:15.503Z,100359.84
2022-11-25T08:50:51.264Z,100365.22
2022-11-25T08:53:25.826Z,100369.63
2022-11-25T08:56:00.955Z,100369.59
2022-11-25T08:58:34.909Z,100366.06
2022-11-25T09:01:09.348Z,100368.66
2022-11-25T09:03:46.007Z,100371.22
2022-11-25T09:06:20.417Z,100378.16
2022-11-25T09:08:57.521Z,100379.00
2022-11-25T09:11:32.540Z,100378.06
2022-11-25T09:14:06.291Z,100380.66
2022-11-25T09:16:40.275Z,100379.72
2022-11-25T09:19:13.865Z,100376.16
2022-11-25T09:21:47.572Z,100378.75
2022-11-25T09:24:21.188Z,100388.44
2022-11-25T09:26:56.404Z,100391.94
2022-11-25T09:29:31.021Z,100397.25
2022-11-25T09:32:04.752Z,100399.06
2022-11-25T09:34:38.743Z,100393.84
2022-11-25T09:37:13.546Z,100393.88
2022-11-25T09:39:47.209Z,100393.88
2022-11-25T09:42:55.085Z,100397.34
2022-11-25T09:45:54.056Z,100399.97
2022-11-25T09:48:44.414Z,100398.19
2022-11-25T09:51:23.267Z,100399.97
2022-11-25T09:53:59.795Z,100400.84
2022-11-25T09:56:37.186Z,100396.41
2022-11-25T09:59:19.792Z,100398.09
2022-11-25T10:02:00.234Z,100399.84
2022-11-25T10:04:39.395Z,100404.22
2022-11-25T10:07:19.609Z,100403.28
2022-11-25T10:09:54.412Z,100411.13
2022-11-25T10:12:32.205Z,100407.59
2022-11-25T10:15:14.045Z,100407.53
2022-11-25T10:17:50.699Z,100406.63
2022-11-25T10:20:29.829Z,100403.09
2022-11-25T10:23:06.015Z,100399.56
2022-11-25T10:25:43.816Z,100406.56
2022-11-25T10:28:20.228Z,100402.06
2022-11-25T10:31:02.753Z,100395.78
2022-11-25T10:33:43.161Z,100395.69
2022-11-25T10:36:20.702Z,100402.63
2022-11-25T10:38:58.770Z,100396.28
2022-11-25T10:41:36.474Z,100398.78
2022-11-25T10:44:20.788Z,100400.34
2022-11-25T10:47:16.560Z,100398.25
2022-11-25T10:50:03.151Z,100401.88
2022-11-25T10:52:41.893Z,100406.22
2022-11-25T10:55:17.913Z,100403.50
2022-11-25T10:57:51.423Z,100403.41
2022-11-25T11:00:37.040Z,100407.72
2022-11-25T11:03:17.475Z,100399.72
2022-11-25T11:05:54.041Z,100404.13
2022-11-25T11:08:29.092Z,100408.56
2022-11-25T11:11:18.202Z,100406.75
2022-11-25T11:14:00.445Z,100407.66
2022-11-25T11:16:38.252Z,100408.53
2022-11-25T11:19:24.525Z,100408.44
2022-11-25T11:21:59.571Z,100409.31
2022-11-25T11:24:38.106Z,100401.31
2022-11-25T11:27:22.092Z,100400.34
2022-11-25T11:30:10.590Z,100402.81
2022-11-25T11:32:48.112Z,100408.13
2022-11-25T11:35:30.938Z,100410.63
2022-11-25T11:38:33.474Z,100412.38
2022-11-25T11:41:20.815Z,100410.72
2022-11-25T11:44:19.916Z,100413.34
2022-11-25T11:47:16.788Z,100414.31
2022-11-25T11:50:05.782Z,100416.25
2022-11-25T11:52:54.553Z,100414.59
2022-11-25T11:55:44.959Z,100420.84
2022-11-25T11:58:30.439Z,100420.91
2022-11-25T12:01:56.175Z,100417.34
2022-11-25T12:05:01.260Z,100417.53
2022-11-25T12:07:45.416Z,100424.63
2022-11-25T12:10:32.513Z,100422.06
2022-11-25T12:13:16.041Z,100428.44
2022-11-25T12:16:10.632Z,100426.75
2022-11-25T12:22:07.334Z,100424.31
2022-11-25T12:24:54.184Z,100428.75
2022-11-25T12:27:39.251Z,100427.94
2022-11-25T12:30:21.073Z,100427.16
2022-11-25T12:33:15.984Z,100427.13
2022-11-25T12:36:10.483Z,100429.78
2022-11-25T12:39:08.104Z,100430.63
2022-11-25T12:42:06.565Z,100427.19
2022-11-25T12:44:54.117Z,100430.75
2022-11-25T12:47:51.874Z,100427.31
2022-11-25T12:50:35.828Z,100426.50
2022-11-25T12:53:17.260Z,100428.31
2022-11-25T12:55:50.724Z,100438.03
2022-11-25T12:58:42.055Z,100426.59
2022-11-25T13:01:52.895Z,100434.56
2022-11-25T13:05:33.007Z,100425.81
2022-11-25T13:08:13.622Z,100434.78
2022-11-25T13:11:07.392Z,100427.81
2022-11-25T13:13:52.458Z,100433.13
2022-11-25T13:16:29.430Z,100440.34
2022-11-25T13:19:03.250Z,100435.09
2022-11-25T13:21:36.797Z,100436.88
2022-11-25T13:24:42.627Z,100442.09
2022-11-25T13:27:32.442Z,100440.44
2022-11-25T13:30:06.957Z,100454.59
2022-11-25T13:32:47.792Z,100451.97
2022-11-25T13:35:39.531Z,100451.91
2022-11-25T13:38:39.380Z,100445.81
2022-11-25T13:41:35.586Z,100446.78
2022-11-25T13:44:20.578Z,100441.50
2022-11-25T13:47:06.301Z,100451.25
2022-11-25T13:49:59.085Z,100441.53
2022-11-25T13:52:46.599Z,100458.22
2022-11-25T13:55:33.970Z,100459.16
2022-11-25T13:58:21.769Z,100457.47
2022-11-25T14:01:30.203Z,100454.91
2022-11-25T14:04:07.216Z,100452.41
2022-11-25T14:07:09.221Z,100438.41
2022-11-25T14:10:13.774Z,100457.81
2022-11-25T14:13:17.546Z,100465.75
2022-11-25T14:16:17.962Z,100464.91
2022-11-25T14:23:10.869Z,100465.91
2022-11-25T14:25:59.605Z,100469.44
2022-11-25T14:28:43.529Z,100470.44
2022-11-25T14:31:51.874Z,100477.50
2022-11-25T14:34:30.371Z,100483.66
2022-11-25T14:37:13.044Z,100481.88
2022-11-25T14:39:54.159Z,100489.78
2022-11-25T14:42:34.377Z,100491.53
2022-11-25T14:45:22.076Z,100490.63
2022-11-25T14:47:55.836Z,100488.03
2022-11-25T14:50:37.138Z,100492.41
2022-11-25T14:53:14.330Z,100487.13
2022-11-25T14:55:50.872Z,100484.41
2022-11-25T14:58:24.372Z,100487.97
2022-11-25T15:01:02.761Z,100501.13
2022-11-25T15:03:36.271Z,100500.22
2022-11-25T15:06:15.462Z,100499.28
2022-11-25T15:08:57.162Z,100495.72
2022-11-25T15:11:35.324Z,100489.50
2022-11-25T15:14:16.112Z,100504.47
2022-11-25T15:16:51.475Z,100500.03
2022-11-25T15:19:33.562Z,100500.75
2022-11-25T15:22:22.946Z,100498.25
2022-11-25T15:25:09.330Z,100500.84
2022-11-25T15:27:47.051Z,100492.94
2022-11-25T15:30:22.653Z,100498.25
2022-11-25T15:32:57.160Z,100501.78
2022-11-25T15:35:30.882Z,100500.00
2022-11-25T15:38:19.037Z,100500.78
2022-11-25T15:40:57.415Z,100514.91
2022-11-25T15:43:33.893Z,100506.09
2022-11-25T15:46:09.055Z,100514.03
2022-11-25T15:48:47.157Z,100517.56
2022-11-25T15:51:34.462Z,100507.84
2022-11-25T15:54:18.359Z,100508.72
2022-11-25T15:56:54.364Z,100500.78
2022-11-25T15:59:42.533Z,100501.72
2022-11-25T16:02:39.853Z,100506.09
2022-11-25T16:05:39.892Z,100514.94
2022-11-25T16:08:41.041Z,100508.78
2022-11-25T16:11:19.334Z,100508.81
2022-11-25T16:14:22.415Z,100514.97
2022-11-25T16:23:46.076Z,100507.84
2022-11-25T16:26:25.663Z,100508.69
2022-11-25T16:29:01.310Z,100513.09
2022-11-25T16:31:34.816Z,100507.78
2022-11-25T16:34:15.840Z,100520.97
2022-11-25T16:36:49.532Z,100519.19
2022-11-25T16:39:23.127Z,100517.41
2022-11-25T16:42:04.803Z,100514.75
2022-11-25T16:44:39.065Z,100514.75
2022-11-25T16:47:12.604Z,100523.59
2022-11-25T16:49:47.868Z,100517.41
2022-11-25T16:52:21.303Z,100524.44
2022-11-25T16:54:54.817Z,100518.31
2022-11-25T16:57:28.299Z,100523.63
2022-11-25T17:00:08.536Z,100520.09
2022-11-25T17:02:42.147Z,100521.88
2022-11-25T17:05:20.536Z,100516.59
2022-11-25T17:07:54.362Z,100513.09
2022-11-25T17:10:28.004Z,100525.41
2022-11-25T17:13:03.221Z,100524.53
2022-11-25T17:15:39.353Z,100526.28
2022-11-25T17:18:17.027Z,100525.38
2022-11-25T17:20:51.902Z,100529.78
2022-11-25T17:23:26.698Z,100527.13
2022-11-25T17:26:00.214Z,100523.63
2022-11-25T17:28:33.691Z,100529.75
2022-11-25T17:31:07.746Z,100534.16
2022-11-25T17:33:46.096Z,100527.81
2022-11-25T17:36:21.267Z,100531.56
2022-11-25T17:38:54.812Z,100534.22
2022-11-25T17:41:32.311Z,100535.13
2022-11-25T17:44:17.718Z,100541.34
2022-11-25T17:46:51.162Z,100545.72
2022-11-25T17:49:25.527Z,100548.34
2022-11-25T17:52:00.381Z,100547.44
2022-11-25T17:54:33.964Z,100550.97
2022-11-25T17:57:09.171Z,100544.84
2022-11-25T17:59:42.865Z,100550.09
2022-11-25T18:02:19.827Z,100543.03
2022-11-25T18:04:53.417Z,100542.19
2022-11-25T18:07:28.335Z,100548.31
2022-11-25T18:10:01.884Z,100547.47
2022-11-25T18:12:36.751Z,100543.03
2022-11-25T18:15:17.133Z,100548.34
2022-11-25T18:17:51.595Z,100547.44
2022-11-25T18:20:27.033Z,100547.44
2022-11-25T18:23:02.417Z,100555.34
2022-11-25T18:25:35.883Z,100555.38
2022-11-25T18:28:09.572Z,100561.50
2022-11-25T18:30:43.235Z,100565.91
2022-11-25T18:33:18.532Z,100565.00
2022-11-25T18:35:52.047Z,100562.34
2022-11-25T18:38:26.995Z,100568.53
2022-11-25T18:41:00.472Z,100561.47
2022-11-25T18:43:37.682Z,100567.66
2022-11-25T18:46:11.952Z,100570.34
2022-11-25T18:48:45.594Z,100567.72
2022-11-25T18:51:19.137Z,100573.00
2022-11-25T18:53:57.030Z,100571.19
2022-11-25T18:56:30.505Z,100575.56
2022-11-25T18:59:05.662Z,100579.09
2022-11-25T19:01:39.316Z,100574.66
2022-11-25T19:04:17.476Z,100579.09
2022-11-25T19:06:51.503Z,100580.91
2022-11-25T19:09:26.040Z,100581.63
2022-11-25T19:12:00.022Z,100585.28
2022-11-25T19:14:34.896Z,100584.28
2022-11-25T19:17:19.759Z,100585.28
2022-11-25T19:19:53.788Z,100586.22
2022-11-25T19:22:27.441Z,100587.91
2022-11-25T19:25:02.599Z,100594.09
2022-11-25T19:27:39.453Z,100590.59
2022-11-25T19:30:17.862Z,100588.81
2022-11-25T19:32:55.046Z,100590.56
2022-11-25T19:35:32.970Z,100591.41
2022-11-25T19:38:12.343Z,100596.66
2022-11-25T19:40:49.948Z,100603.69
2022-11-25T19:43:27.180Z,100610.75
2022-11-25T19:46:01.946Z,100611.63
2022-11-25T19:48:39.930Z,100604.59
2022-11-25T19:51:13.801Z,100617.75
2022-11-25T19:53:47.324Z,100610.72
2022-11-25T19:56:24.414Z,100619.50
2022-11-25T19:58:58.269Z,100616.88
2022-11-25T20:01:34.867Z,100620.41
2022-11-25T20:04:11.903Z,100627.44
2022-11-25T20:06:45.667Z,100623.03
2022-11-25T20:09:19.425Z,100626.59
2022-11-25T20:11:58.764Z,100626.63
2022-11-25T20:14:35.030Z,100626.59
2022-11-25T20:17:12.218Z,100621.31
2022-11-25T20:19:45.850Z,100623.06
2022-11-25T20:22:25.565Z,100620.41
2022-11-25T20:25:01.656Z,100628.28
2022-11-25T20:27:36.689Z,100621.28
2022-11-25T20:30:17.358Z,100630.00
2022-11-25T20:32:51.296Z,100628.22
2022-11-25T20:35:27.348Z,100625.59
2022-11-25T20:38:01.127Z,100628.22
2022-11-25T20:40:40.481Z,100631.78
2022-11-25T20:43:28.141Z,100630.00
2022-11-25T20:46:03.487Z,100630.00
2022-11-25T20:48:38.229Z,100640.56
2022-11-25T20:51:18.045Z,100644.09
2022-11-25T20:53:53.654Z,100640.59
2022-11-25T20:56:32.134Z,100643.22
2022-11-25T20:59:20.413Z,100645.00
2022-11-25T21:01:54.807Z,100638.88
2022-11-25T21:04:28.850Z,100652.97
2022-11-25T21:07:02.424Z,100654.72
2022-11-25T21:09:38.169Z,100652.97
2022-11-25T21:12:18.862Z,100655.63
2022-11-25T21:14:54.474Z,100659.16
2022-11-25T21:17:27.930Z,100663.59
2022-11-25T21:20:01.397Z,100656.59
2022-11-25T21:22:40.896Z,100661.88
2022-11-25T21:25:17.965Z,100660.16
2022-11-25T21:27:56.475Z,100671.59
2022-11-25T21:30:32.837Z,100668.97
2022-11-25T21:33:10.878Z,100669.00
2022-11-25T21:35:46.955Z,100667.22
2022-11-25T21:38:24.231Z,100673.38
2022-11-25T21:40:59.385Z,100670.72
2022-11-25T21:43:35.307Z,100673.34
2022-11-25T21:46:15.892Z,100677.69
2022-11-25T21:48:49.342Z,100679.44
2022-11-25T21:51:24.482Z,100679.41
2022-11-25T21:53:58.040Z,100691.69
2022-11-25T21:56:34.253Z,100682.06
2022-11-25T21:59:09.486Z,100682.03
2022-11-25T22:01:44.356Z,100685.53
2022-11-25T22:04:20.750Z,100679.34
2022-11-25T22:06:55.243Z,100683.72
2022-11-25T22:09:28.788Z,100690.75
2022-11-25T22:12:02.433Z,100688.97
2022-11-25T22:14:38.536Z,100696.00
2022-11-25T22:17:18.940Z,100701.28
2022-11-25T22:19:52.435Z,100694.19
2022-11-25T22:22:25.968Z,100702.97
2022-11-25T22:24:59.473Z,100704.75
2022-11-25T22:27:41.262Z,100711.81
2022-11-25T22:30:18.562Z,100706.59
2022-11-25T22:33:01.341Z,100711.88
2022-11-25T22:35:35.013Z,100709.25
2022-11-25T22:38:15.068Z,100714.50
2022-11-25T22:40:51.784Z,100711.84
2022-11-25T22:43:28.733Z,100703.00
2022-11-25T22:46:03.398Z,100711.81
2022-11-25T22:48:40.241Z,100715.31
2022-11-25T22:51:17.833Z,100711.78
2022-11-25T22:53:51.291Z,100709.13
2022-11-25T22:56:24.761Z,100703.84
2022-11-25T22:59:00.516Z,100705.59
2022-11-25T23:01:34.180Z,100709.13
2022-11-25T23:04:19.304Z,100705.53
2022-11-25T23:06:53.657Z,100702.03
2022-11-25T23:09:27.159Z,100716.09
2022-11-25T23:12:00.662Z,100716.09
2022-11-25T23:14:34.149Z,100719.56
2022-11-25T23:17:13.864Z,100714.28
2022-11-25T23:19:48.805Z,100725.72
2022-11-25T23:22:22.314Z,100723.03
2022-11-25T23:24:55.894Z,100716.84
2022-11-25T23:27:29.432Z,100715.97
2022-11-25T23:30:02.981Z,100722.09
2022-11-25T23:32:36.483Z,100726.50
2022-11-25T23:35:16.338Z,100731.78
2022-11-25T23:37:55.150Z,100728.31
2022-11-25T23:40:28.973Z,100725.66
2022-11-25T23:43:03.176Z,100729.16
2022-11-25T23:45:36.789Z,100735.28
2022-11-25T23:48:11.599Z,100732.66
2022-11-25T23:50:48.138Z,100732.66
2022-11-25T23:53:25.990Z,100730.88
2022-11-25T23:55:59.740Z,100733.53
2022-11-25T23:58:33.338Z,100747.66
